Time;durP1;ratioP1;P1;durP2;ratioP2;P2;SDS_P1;SDS_P2;PMS_P1;PMS_P2;Temp;Humidity;BMP_temperature;BMP_pressure;BME280_temperature;BME280_humidity;BME280_pressure;Samples;Min_cycle;Max_cycle;Signal;HPM_P1;HPM_P2
2022/11/11 00:02:22;;;;;;;3.50;3.20;;;8.60;99.90;;;;;;4951838;29;20075;-76
2022/11/11 00:05:07;;;;;;;3.88;3.08;;;8.60;99.90;;;;;;4937172;29;20079;-76
2022/11/11 00:07:52;;;;;;;6.95;4.32;;;8.50;99.90;;;;;;4937163;29;20122;-77
2022/11/11 00:10:36;;;;;;;6.03;3.83;;;8.40;99.90;;;;;;4937029;29;20054;-77
2022/11/11 00:13:20;;;;;;;3.75;2.33;;;8.40;99.90;;;;;;4951601;29;20051;-76
2022/11/11 00:16:07;;;;;;;3.72;3.33;;;8.40;99.90;;;;;;4951463;29;20047;-76
2022/11/11 00:25:06;;;;;;;2.83;2.47;;;8.40;99.90;;;;;;4939430;29;20067;-76
2022/11/11 00:27:50;;;;;;;6.30;3.35;;;8.30;99.90;;;;;;4936809;29;20050;-77
2022/11/11 00:30:35;;;;;;;2.63;2.50;;;8.20;99.90;;;;;;4951400;29;20095;-76
2022/11/11 00:33:19;;;;;;;4.25;3.08;;;8.20;99.90;;;;;;4951027;29;20050;-76
2022/11/11 00:36:05;;;;;;;3.10;2.67;;;8.10;99.90;;;;;;4951016;29;20151;-76
2022/11/11 00:38:51;;;;;;;3.60;3.17;;;8.10;99.90;;;;;;4922796;29;20062;-77
2022/11/11 00:41:36;;;;;;;3.33;2.72;;;8.10;99.90;;;;;;4936608;29;20080;-77
2022/11/11 00:44:20;;;;;;;8.45;3.95;;;8.10;99.90;;;;;;4917542;29;20080;-76
2022/11/11 00:53:29;;;;;;;6.50;5.43;;;8.00;99.90;;;;;;4931602;29;20046;-77
2022/11/11 00:56:14;;;;;;;4.38;3.20;;;8.10;99.90;;;;;;4946255;29;20133;-77
2022/11/11 00:58:58;;;;;;;5.10;4.28;;;8.00;99.90;;;;;;4936350;29;20071;-77
2022/11/11 01:01:42;;;;;;;4.63;4.07;;;8.00;99.90;;;;;;4950262;29;20054;-75
2022/11/11 01:04:27;;;;;;;4.95;3.70;;;7.90;99.90;;;;;;4922610;29;20528;-78
2022/11/11 01:07:11;;;;;;;8.73;5.53;;;7.90;99.90;;;;;;4935949;29;20421;-78
2022/11/11 01:09:56;;;;;;;4.75;4.18;;;7.90;99.90;;;;;;4950575;29;20062;-77
2022/11/11 01:12:40;;;;;;;8.02;4.88;;;7.80;99.90;;;;;;4935834;29;20054;-76
2022/11/11 01:15:25;;;;;;;7.78;4.88;;;7.90;99.90;;;;;;4935680;29;20051;-77
2022/11/11 01:18:11;;;;;;;8.70;5.05;;;7.80;99.90;;;;;;4931191;29;20043;-77
2022/11/11 01:21:12;;;;;;;5.82;5.13;;;7.80;99.90;;;;;;4916724;29;20039;-76
2022/11/11 01:23:56;;;;;;;10.10;5.18;;;7.80;99.90;;;;;;4931240;29;20091;-77
2022/11/11 01:26:40;;;;;;;7.72;4.03;;;7.70;99.90;;;;;;4931229;29;20072;-76
2022/11/11 01:29:25;;;;;;;8.68;6.55;;;7.70;99.90;;;;;;4931192;29;20068;-77
2022/11/11 01:32:09;;;;;;;5.90;5.32;;;7.60;99.90;;;;;;4919018;29;20078;-77
2022/11/11 01:34:54;;;;;;;8.35;4.53;;;7.60;99.90;;;;;;4935398;29;20038;-77
2022/11/11 01:37:39;;;;;;;10.88;6.35;;;7.60;99.90;;;;;;4921962;29;20075;-76
2022/11/11 01:40:23;;;;;;;5.05;4.65;;;7.50;99.90;;;;;;4949656;29;20063;-77
2022/11/11 01:43:07;;;;;;;6.38;5.32;;;7.40;99.90;;;;;;4950017;29;20094;-77
2022/11/11 01:45:58;;;;;;;6.80;6.13;;;7.50;99.90;;;;;;4949934;29;20526;-77
2022/11/11 01:52:22;;;;;;;10.60;6.47;;;7.40;99.90;;;;;;4949274;29;20404;-76
2022/11/11 01:55:14;;;;;;;9.07;6.20;;;7.40;99.90;;;;;;4949635;29;20101;-76
2022/11/11 01:58:04;;;;;;;6.93;4.80;;;7.30;99.90;;;;;;4949576;29;20047;-77
2022/11/11 02:00:49;;;;;;;7.28;6.00;;;7.30;99.90;;;;;;4949328;29;20071;-76
2022/11/11 02:03:39;;;;;;;6.68;6.03;;;7.20;99.90;;;;;;4949236;29;20054;-77
2022/11/11 02:06:23;;;;;;;14.85;6.97;;;7.20;99.90;;;;;;4948294;29;20403;-77
2022/11/11 02:09:08;;;;;;;6.07;5.47;;;7.20;99.90;;;;;;4935030;29;20046;-76
2022/11/11 02:15:00;;;;;;;6.95;6.25;;;7.20;99.90;;;;;;4949389;29;20103;-76
2022/11/11 02:17:47;;;;;;;6.22;5.63;;;7.10;99.90;;;;;;4934714;29;20047;-76
2022/11/11 02:20:36;;;;;;;7.00;5.55;;;7.10;99.90;;;;;;4948719;29;20043;-76
2022/11/11 02:23:30;;;;;;;6.65;6.03;;;7.00;99.90;;;;;;4949214;29;20049;-76
2022/11/11 02:26:16;;;;;;;7.45;6.07;;;7.00;99.90;;;;;;4949236;29;20074;-76
2022/11/11 02:29:04;;;;;;;9.02;7.60;;;7.10;99.90;;;;;;4949012;29;20559;-76
2022/11/11 02:31:49;;;;;;;8.35;6.65;;;7.10;99.90;;;;;;4948819;29;20043;-76
2022/11/11 02:34:34;;;;;;;7.50;6.15;;;7.00;99.90;;;;;;4949062;29;20067;-76
2022/11/11 02:37:25;;;;;;;8.70;6.32;;;7.00;99.90;;;;;;4934438;29;20042;-76
2022/11/11 02:40:13;;;;;;;18.83;8.25;;;6.90;99.90;;;;;;4948521;29;20054;-76
2022/11/11 02:42:57;;;;;;;9.25;8.30;;;6.90;99.90;;;;;;4934220;29;20050;-76
2022/11/11 02:45:41;;;;;;;8.70;5.70;;;6.90;99.90;;;;;;4914166;29;20079;-77
2022/11/11 02:48:26;;;;;;;7.25;6.50;;;6.80;99.90;;;;;;4948926;29;20074;-76
2022/11/11 02:51:11;;;;;;;8.50;7.70;;;6.90;99.90;;;;;;4948492;29;20054;-76
2022/11/11 02:53:57;;;;;;;8.00;7.20;;;6.80;99.90;;;;;;4948532;29;20092;-77
2022/11/11 02:59:46;;;;;;;14.98;7.90;;;6.80;99.90;;;;;;4948407;29;20066;-76
2022/11/11 03:02:31;;;;;;;7.90;7.07;;;6.80;99.90;;;;;;4921057;29;20119;-77
2022/11/11 03:05:15;;;;;;;9.25;7.38;;;6.80;99.90;;;;;;4933816;29;20111;-76
2022/11/11 03:08:00;;;;;;;7.47;6.03;;;6.80;99.90;;;;;;4933967;29;20043;-77
2022/11/11 03:10:45;;;;;;;7.68;6.93;;;6.80;99.90;;;;;;4948479;29;20054;-76
2022/11/11 03:13:29;;;;;;;10.18;8.38;;;6.70;99.90;;;;;;4920604;29;20045;-75
2022/11/11 03:17:38;;;;;;;10.27;8.60;;;6.80;99.90;;;;;;4932862;29;20073;-75
2022/11/11 03:19:18;;;;;;;9.45;8.57;;;6.80;99.90;;;;;;4943326;29;20042;-75
2022/11/11 03:22:03;;;;;;;8.07;7.25;;;6.80;99.90;;;;;;4940300;29;20461;-75
2022/11/11 03:27:50;;;;;;;12.10;7.65;;;6.70;99.90;;;;;;4954561;29;20100;-77
2022/11/11 03:30:35;;;;;;;13.60;7.35;;;6.70;99.90;;;;;;4939901;29;20070;-77
2022/11/11 03:33:20;;;;;;;9.98;8.13;;;6.60;99.90;;;;;;4939951;29;20063;-77
2022/11/11 03:36:05;;;;;;;6.38;5.75;;;6.60;99.90;;;;;;4940186;29;20058;-78
2022/11/11 03:38:50;;;;;;;10.52;7.07;;;6.60;99.90;;;;;;4926686;29;20576;-77
2022/11/11 03:41:34;;;;;;;7.22;6.35;;;6.50;99.90;;;;;;4940251;29;20047;-76
2022/11/11 03:44:19;;;;;;;7.68;6.97;;;6.50;99.90;;;;;;4954493;29;20046;-76
2022/11/11 03:47:03;;;;;;;7.30;6.43;;;6.50;99.90;;;;;;4926566;29;20038;-77
2022/11/11 03:49:48;;;;;;;10.40;6.47;;;6.50;99.90;;;;;;4926952;29;20086;-77
2022/11/11 03:52:32;;;;;;;7.53;5.80;;;6.40;99.90;;;;;;4939973;29;20058;-76
2022/11/11 03:55:17;;;;;;;11.60;6.65;;;6.40;99.90;;;;;;4954429;29;20058;-77
2022/11/11 03:58:01;;;;;;;7.75;6.70;;;6.50;99.90;;;;;;4954653;29;20090;-77
2022/11/11 04:00:45;;;;;;;11.57;6.63;;;6.50;99.90;;;;;;4954152;29;20087;-78
2022/11/11 04:21:52;;;;;;;7.68;5.60;;;6.40;99.90;;;;;;4954334;29;20087;-77
2022/11/11 04:27:39;;;;;;;6.95;5.95;;;6.50;99.90;;;;;;4954022;29;20054;-77
2022/11/11 04:30:23;;;;;;;8.30;5.63;;;6.50;99.90;;;;;;4950031;29;20046;-77
2022/11/11 04:33:08;;;;;;;9.77;6.22;;;6.40;99.90;;;;;;4923305;29;20047;-77
2022/11/11 04:35:54;;;;;;;8.70;6.32;;;6.40;99.90;;;;;;4936651;29;20058;-77
2022/11/11 04:41:41;;;;;;;9.63;6.50;;;6.40;99.90;;;;;;4939150;29;20062;-77
2022/11/11 04:47:29;;;;;;;7.85;6.57;;;6.30;99.90;;;;;;4938970;29;20107;-77
2022/11/11 04:50:13;;;;;;;7.18;5.15;;;6.30;99.90;;;;;;4936421;29;20422;-76
2022/11/11 04:52:59;;;;;;;9.02;6.70;;;6.40;99.90;;;;;;4936178;29;20072;-76
2022/11/11 04:59:14;;;;;;;14.75;5.88;;;6.40;99.90;;;;;;4950633;29;20127;-78
2022/11/11 05:04:55;;;;;;;5.68;5.15;;;6.40;99.90;;;;;;4950662;29;20445;-77
2022/11/11 05:10:42;;;;;;;6.90;6.20;;;6.30;99.90;;;;;;4938572;29;20054;-77
2022/11/11 05:22:43;;;;;;;6.50;5.65;;;6.20;99.90;;;;;;4950246;29;20134;-77
2022/11/11 05:25:32;;;;;;;8.65;5.78;;;6.20;99.90;;;;;;4949782;29;20046;-77
2022/11/11 05:28:17;;;;;;;6.78;5.03;;;6.20;99.90;;;;;;4950082;29;20046;-77
2022/11/11 05:31:01;;;;;;;7.43;6.15;;;6.20;99.90;;;;;;4935647;29;20133;-78
2022/11/11 05:33:46;;;;;;;9.88;5.88;;;6.30;99.90;;;;;;4949858;29;20042;-77
2022/11/11 05:36:30;;;;;;;5.22;4.72;;;6.30;99.90;;;;;;4922292;29;20116;-77
2022/11/11 05:39:15;;;;;;;8.00;5.57;;;6.40;99.90;;;;;;4934395;29;20090;-77
2022/11/11 05:41:59;;;;;;;7.05;4.50;;;6.30;99.90;;;;;;4948989;29;20740;-77
2022/11/11 05:44:44;;;;;;;12.70;5.85;;;6.30;99.90;;;;;;4944759;29;20034;-77
2022/11/11 05:47:28;;;;;;;5.95;5.22;;;6.30;99.90;;;;;;4938651;29;20076;-77
2022/11/11 05:50:12;;;;;;;7.53;6.20;;;6.30;99.90;;;;;;4930998;29;20053;-77
2022/11/11 05:52:57;;;;;;;7.82;5.13;;;6.30;99.90;;;;;;4948343;29;20119;-76
2022/11/11 05:55:42;;;;;;;13.98;8.75;;;6.20;99.90;;;;;;4950791;29;20057;-77
2022/11/11 05:58:26;;;;;;;9.60;6.85;;;6.30;99.90;;;;;;4946832;29;20072;-76
2022/11/11 06:01:10;;;;;;;7.82;7.00;;;6.20;99.90;;;;;;4952267;29;20037;-77
2022/11/11 06:03:54;;;;;;;9.13;7.82;;;6.20;99.90;;;;;;4930107;29;20049;-77
2022/11/11 06:06:39;;;;;;;8.00;5.20;;;6.20;99.90;;;;;;4938727;29;20053;-77
2022/11/11 06:09:23;;;;;;;8.98;6.20;;;6.20;99.90;;;;;;4933838;29;20038;-77
2022/11/11 06:12:07;;;;;;;9.25;5.57;;;6.20;99.90;;;;;;4921049;29;20107;-77
2022/11/11 06:14:52;;;;;;;7.22;5.72;;;6.10;99.90;;;;;;4948634;29;20107;-77
2022/11/11 06:17:37;;;;;;;8.18;4.88;;;6.00;99.90;;;;;;4948902;29;20095;-77
2022/11/11 06:20:22;;;;;;;7.57;6.03;;;6.10;99.90;;;;;;4920883;29;20050;-77
2022/11/11 06:23:06;;;;;;;7.22;6.57;;;6.10;99.90;;;;;;4964366;29;20515;-76
2022/11/11 06:28:55;;;;;;;8.70;5.63;;;6.20;99.90;;;;;;4953654;29;20041;-76
2022/11/11 06:31:40;;;;;;;8.50;5.53;;;6.20;99.90;;;;;;4967653;29;20090;-76
2022/11/11 06:34:24;;;;;;;6.60;4.93;;;6.10;99.90;;;;;;4939283;29;20063;-76
2022/11/11 06:37:09;;;;;;;5.82;5.32;;;6.10;99.90;;;;;;4939924;29;20054;-76
2022/11/11 06:39:54;;;;;;;8.25;6.28;;;6.00;99.90;;;;;;4939446;29;20079;-76
2022/11/11 06:42:39;;;;;;;6.88;6.15;;;6.00;99.90;;;;;;4939473;29;20106;-76
2022/11/11 06:45:24;;;;;;;15.43;6.38;;;6.10;99.90;;;;;;4952266;29;20041;-76
2022/11/11 06:48:09;;;;;;;6.78;5.40;;;6.10;99.90;;;;;;4926737;29;20054;-77
2022/11/11 06:50:54;;;;;;;6.05;5.28;;;6.20;99.90;;;;;;4932273;29;20046;-76
2022/11/11 06:53:39;;;;;;;9.18;6.80;;;6.10;99.90;;;;;;4952283;29;20071;-76
2022/11/11 06:56:24;;;;;;;9.68;7.30;;;6.10;99.90;;;;;;4939412;29;20046;-76
2022/11/11 06:59:08;;;;;;;10.10;7.15;;;6.10;99.90;;;;;;4935785;29;20055;-76
2022/11/11 07:01:53;;;;;;;6.78;5.93;;;6.00;99.90;;;;;;4935507;29;20076;-76
2022/11/11 07:04:38;;;;;;;10.75;7.20;;;6.00;99.90;;;;;;4916836;29;20099;-77
2022/11/11 07:07:22;;;;;;;12.02;7.72;;;6.00;99.90;;;;;;4920377;29;20099;-77
2022/11/11 07:10:09;;;;;;;8.63;7.72;;;6.10;99.90;;;;;;4913143;29;20063;-77
2022/11/11 07:12:53;;;;;;;7.22;6.22;;;6.10;99.90;;;;;;4931815;29;20051;-76
2022/11/11 07:15:40;;;;;;;8.00;6.60;;;6.20;99.90;;;;;;4930778;29;20127;-77
2022/11/11 07:18:24;;;;;;;9.75;7.10;;;6.20;99.90;;;;;;4931812;29;20124;-77
2022/11/11 07:21:08;;;;;;;6.72;5.68;;;6.20;99.90;;;;;;4941646;29;20050;-77
2022/11/11 07:23:52;;;;;;;6.38;5.65;;;6.30;99.90;;;;;;4947177;29;20141;-77
2022/11/11 07:26:37;;;;;;;8.27;6.07;;;6.30;99.90;;;;;;4930810;29;20049;-77
2022/11/11 07:29:21;;;;;;;8.05;7.25;;;6.40;99.90;;;;;;4918767;29;20108;-77
2022/11/11 07:32:06;;;;;;;14.10;9.18;;;6.40;99.90;;;;;;4943008;29;20051;-77
2022/11/11 07:34:51;;;;;;;11.82;7.82;;;6.50;99.90;;;;;;4931737;29;20091;-77
2022/11/11 07:37:36;;;;;;;23.25;17.08;;;6.60;99.90;;;;;;4918812;29;20038;-77
2022/11/11 07:40:20;;;;;;;33.88;21.08;;;6.70;99.90;;;;;;4945661;29;20058;-77
2022/11/11 07:43:04;;;;;;;32.17;18.73;;;6.70;99.90;;;;;;4946998;29;20046;-78
2022/11/11 07:45:49;;;;;;;16.83;12.52;;;6.80;99.90;;;;;;4917014;29;20120;-77
2022/11/11 07:48:33;;;;;;;15.90;10.55;;;6.70;99.90;;;;;;4932659;29;20042;-77
2022/11/11 07:51:17;;;;;;;7.50;5.57;;;6.80;99.90;;;;;;4932668;29;20082;-77
2022/11/11 07:54:02;;;;;;;4.82;4.00;;;7.00;99.90;;;;;;4944261;29;20046;-76
2022/11/11 07:56:46;;;;;;;5.13;3.78;;;7.10;99.90;;;;;;4932654;29;20070;-77
2022/11/11 07:59:31;;;;;;;4.07;3.67;;;7.20;99.90;;;;;;4931634;29;20051;-76
2022/11/11 08:02:16;;;;;;;4.40;4.00;;;7.50;99.90;;;;;;4946496;29;20408;-76
2022/11/11 08:05:00;;;;;;;4.07;3.15;;;7.60;99.90;;;;;;4934474;29;20082;-77
2022/11/11 08:07:45;;;;;;;4.20;3.60;;;7.70;99.90;;;;;;4920004;29;20096;-77
2022/11/11 08:10:30;;;;;;;5.88;3.55;;;7.70;99.90;;;;;;4943833;29;20051;-77
2022/11/11 08:16:17;;;;;;;4.50;4.07;;;7.70;99.90;;;;;;4939501;29;20522;-76
2022/11/11 08:19:02;;;;;;;7.68;4.82;;;7.90;99.90;;;;;;4905234;29;20056;-76
2022/11/11 08:21:46;;;;;;;6.32;5.35;;;8.00;99.90;;;;;;4930731;29;20051;-77
2022/11/11 08:24:31;;;;;;;10.70;4.32;;;8.10;99.90;;;;;;4922451;29;20122;-77
2022/11/11 08:27:15;;;;;;;7.30;4.53;;;8.30;99.90;;;;;;4936064;29;20057;-77
2022/11/11 08:29:59;;;;;;;5.20;3.72;;;8.60;99.90;;;;;;4942429;29;20115;-76
2022/11/11 08:32:44;;;;;;;6.15;4.75;;;8.80;99.90;;;;;;4934019;29;20054;-77
2022/11/11 08:35:30;;;;;;;4.97;3.60;;;9.20;99.90;;;;;;4927403;29;20051;-77
2022/11/11 08:38:15;;;;;;;6.43;5.35;;;9.70;99.90;;;;;;4949709;29;20042;-76
2022/11/11 08:41:04;;;;;;;5.07;4.57;;;9.90;99.90;;;;;;4936743;29;20576;-76
2022/11/11 08:43:52;;;;;;;5.20;3.80;;;10.20;99.90;;;;;;4951002;29;20091;-77
2022/11/11 08:46:36;;;;;;;5.38;3.80;;;10.40;99.90;;;;;;4922906;29;20477;-76
2022/11/11 08:49:21;;;;;;;3.47;3.17;;;10.80;99.90;;;;;;4936078;29;20523;-76
2022/11/11 08:52:05;;;;;;;3.38;3.17;;;11.30;99.90;;;;;;4935743;29;20399;-76
2022/11/11 08:54:53;;;;;;;19.73;4.68;;;11.70;99.90;;;;;;4936727;29;20046;-77
2022/11/11 08:57:38;;;;;;;9.35;4.60;;;12.10;99.90;;;;;;4936167;29;20099;-76
2022/11/11 09:00:22;;;;;;;7.82;2.47;;;12.90;99.90;;;;;;4922581;29;20054;-77
2022/11/11 09:03:10;;;;;;;2.85;2.58;;;13.80;99.90;;;;;;4922700;29;20042;-76
2022/11/11 09:05:54;;;;;;;6.32;3.70;;;14.70;99.90;;;;;;4949595;29;20108;-77
2022/11/11 09:08:41;;;;;;;5.22;3.30;;;15.10;99.90;;;;;;4935307;29;20074;-77
2022/11/11 09:11:27;;;;;;;4.68;3.20;;;15.50;99.90;;;;;;4943954;29;20111;-76
2022/11/11 09:14:11;;;;;;;7.38;2.95;;;16.80;99.90;;;;;;4935138;29;20066;-76
2022/11/11 09:16:56;;;;;;;1.50;1.27;;;17.50;99.90;;;;;;4948077;29;20569;-76
2022/11/11 09:19:40;;;;;;;2.17;1.98;;;18.60;99.90;;;;;;4940024;29;20046;-77
2022/11/11 09:22:25;;;;;;;2.13;1.90;;;19.20;99.90;;;;;;4949402;29;20088;-76
2022/11/11 09:25:09;;;;;;;2.40;1.60;;;20.00;99.90;;;;;;4948541;29;20046;-76
2022/11/11 09:27:59;;;;;;;1.75;1.65;;;21.00;99.90;;;;;;4949893;29;20409;-76
2022/11/11 09:30:43;;;;;;;2.35;2.15;;;20.40;99.90;;;;;;4949548;29;20079;-77
2022/11/11 09:33:29;;;;;;;3.28;1.30;;;19.90;99.90;;;;;;4955602;29;20098;-77
2022/11/11 09:36:14;;;;;;;2.47;1.35;;;20.50;99.90;;;;;;4934800;29;20492;-77
2022/11/11 09:38:58;;;;;;;2.72;1.38;;;20.60;99.90;;;;;;4948765;29;20055;-76
2022/11/11 09:42:04;;;;;;;5.65;1.85;;;20.60;99.90;;;;;;4949071;29;20134;-77
2022/11/11 09:45:08;;;;;;;11.05;7.22;;;20.80;99.90;;;;;;4949264;29;20103;-76
2022/11/11 09:48:06;;;;;;;9.48;7.10;;;20.40;99.90;;;;;;4949358;29;20067;-77
2022/11/11 09:50:54;;;;;;;5.38;3.72;;;20.80;99.90;;;;;;4938484;29;20066;-77
2022/11/11 09:53:48;;;;;;;7.55;5.70;;;20.60;99.90;;;;;;4934255;29;20054;-77
2022/11/11 09:56:33;;;;;;;4.32;3.22;;;21.30;99.90;;;;;;4925711;29;20461;-74
2022/11/11 09:59:26;;;;;;;4.55;3.15;;;21.80;99.30;;;;;;4949244;29;20098;-74
2022/11/11 10:02:22;;;;;;;2.97;2.53;;;22.30;98.90;;;;;;4934678;29;20071;-76
2022/11/11 10:05:17;;;;;;;2.80;2.25;;;23.00;98.50;;;;;;4934439;29;20051;-76
2022/11/11 10:08:10;;;;;;;3.15;2.85;;;22.70;97.60;;;;;;4934295;29;20034;-73
2022/11/11 10:10:58;;;;;;;3.58;2.88;;;22.20;98.30;;;;;;4933653;29;20038;-77
2022/11/11 10:13:42;;;;;;;4.03;1.92;;;22.70;98.30;;;;;;4934578;29;20099;-75
2022/11/11 10:17:12;;;;;;;1.45;1.35;;;22.60;97.90;;;;;;4948916;29;20063;-77
2022/11/11 10:20:24;;;;;;;2.08;1.98;;;22.30;98.10;;;;;;4896359;29;20051;-75
2022/11/11 10:23:31;;;;;;;3.47;1.70;;;23.30;97.50;;;;;;4936318;29;20095;-77
2022/11/11 10:26:22;;;;;;;1.90;1.45;;;23.50;97.20;;;;;;4922386;29;20067;-77
2022/11/11 10:29:19;;;;;;;2.35;2.15;;;22.50;97.50;;;;;;4948570;29;20121;-77
2022/11/11 10:32:26;;;;;;;1.25;1.13;;;23.00;97.50;;;;;;4933723;29;20123;-75
2022/11/11 10:35:21;;;;;;;3.67;2.38;;;22.90;97.10;;;;;;4936976;29;20092;-77
2022/11/11 10:38:32;;;;;;;2.45;1.85;;;21.90;99.90;;;;;;4933847;29;20055;-77
2022/11/11 10:41:26;;;;;;;21.73;15.15;;;21.50;98.00;;;;;;4933737;29;20110;-76
2022/11/11 10:44:27;;;;;;;4.07;2.85;;;20.50;99.90;;;;;;4948656;29;20118;-77
2022/11/11 10:47:24;;;;;;;2.65;2.45;;;20.70;99.60;;;;;;4933695;29;20046;-77
2022/11/11 10:50:19;;;;;;;8.55;4.35;;;19.90;99.90;;;;;;4948469;29;20062;-77
2022/11/11 10:53:34;;;;;;;6.00;3.95;;;19.90;99.90;;;;;;4948217;29;20071;-76
2022/11/11 10:56:26;;;;;;;54.80;38.35;;;19.30;99.90;;;;;;4933252;29;20042;-78
2022/11/11 10:59:34;;;;;;;27.85;17.88;;;19.30;99.90;;;;;;4933554;29;20036;-77
2022/11/11 11:02:30;;;;;;;27.10;17.10;;;19.10;99.90;;;;;;4947919;29;20046;-76
2022/11/11 11:05:42;;;;;;;9.15;7.13;;;18.90;99.90;;;;;;4947552;29;20070;-77
2022/11/11 11:08:30;;;;;;;2.35;1.83;;;19.30;99.90;;;;;;4948035;29;20101;-77
2022/11/11 11:11:25;;;;;;;3.10;1.58;;;19.20;99.90;;;;;;4932935;29;20064;-77
2022/11/11 11:14:20;;;;;;;5.38;4.30;;;18.60;99.90;;;;;;4948302;29;20034;-76
2022/11/11 11:17:15;;;;;;;5.95;3.95;;;17.80;99.90;;;;;;4933732;29;20042;-76
2022/11/11 11:20:19;;;;;;;3.33;3.08;;;18.20;99.90;;;;;;4932919;29;20047;-77
2022/11/11 11:23:04;;;;;;;2.72;1.63;;;18.10;99.90;;;;;;4943187;29;20057;-77
2022/11/11 11:25:55;;;;;;;2.20;1.60;;;17.80;99.90;;;;;;4947677;29;20071;-76
2022/11/11 11:28:54;;;;;;;4.32;2.55;;;18.10;99.90;;;;;;4947506;29;20042;-77
2022/11/11 11:31:39;;;;;;;2.22;2.03;;;17.80;99.90;;;;;;4944869;29;20050;-77
2022/11/11 11:34:43;;;;;;;1.55;1.27;;;18.10;99.90;;;;;;4947162;29;20047;-77
2022/11/11 11:37:27;;;;;;;4.25;1.55;;;18.10;99.90;;;;;;4947923;29;20071;-77
2022/11/11 11:40:13;;;;;;;1.05;0.93;;;18.20;99.90;;;;;;4951347;29;20083;-76
2022/11/11 11:42:58;;;;;;;1.85;1.05;;;18.10;99.90;;;;;;4951711;29;20099;-77
2022/11/11 11:45:52;;;;;;;6.70;1.75;;;17.50;99.90;;;;;;4937101;29;20071;-77
2022/11/11 11:49:03;;;;;;;2.92;1.65;;;17.50;99.90;;;;;;4936700;29;20046;-77
2022/11/11 11:52:11;;;;;;;6.32;1.17;;;17.40;99.90;;;;;;4951329;29;20047;-77
2022/11/11 11:55:02;;;;;;;1.98;1.42;;;17.10;99.90;;;;;;4951545;29;20046;-76
2022/11/11 11:57:52;;;;;;;2.72;2.00;;;17.00;99.90;;;;;;4951166;29;20400;-76
2022/11/11 12:00:40;;;;;;;;;;;17.30;99.90;;;;;;4937049;29;20059;-77
2022/11/11 12:03:57;;;;;;;1.25;0.93;;;17.20;99.90;;;;;;4957418;29;19917;-76
2022/11/11 12:07:23;;;;;;;1.30;0.85;;;17.30;99.90;;;;;;4943108;29;20102;-77
2022/11/11 12:10:18;;;;;;;1.42;1.17;;;17.30;99.90;;;;;;4943335;29;20103;-76
2022/11/11 12:13:21;;;;;;;1.02;0.82;;;17.00;99.90;;;;;;4924039;29;20042;-76
2022/11/11 12:16:27;;;;;;;2.25;1.38;;;17.30;99.90;;;;;;4952437;29;20046;-77
2022/11/11 12:19:23;;;;;;;1.65;1.50;;;17.30;99.90;;;;;;4931891;29;20135;-77
2022/11/11 12:22:19;;;;;;;1.17;0.98;;;17.20;99.90;;;;;;4936497;29;20098;-76
2022/11/11 12:25:30;;;;;;;4.03;0.90;;;17.10;99.90;;;;;;4950952;29;20050;-77
2022/11/11 12:28:33;;;;;;;;;;;17.20;99.90;;;;;;4936530;29;20061;-76
2022/11/11 12:31:43;;;;;;;1.73;0.93;;;16.90;99.90;;;;;;4957382;28;19978;-77
2022/11/11 12:34:45;;;;;;;2.70;1.63;;;16.60;99.90;;;;;;4935966;29;20059;-76
2022/11/11 12:37:46;;;;;;;1.42;1.15;;;16.70;99.90;;;;;;4950370;29;20103;-76
2022/11/11 12:40:52;;;;;;;1.08;0.98;;;16.60;99.90;;;;;;4940036;29;20051;-76
2022/11/11 12:43:50;;;;;;;11.10;0.93;;;16.40;99.90;;;;;;4951009;29;20115;-76
2022/11/11 12:47:05;;;;;;;1.00;0.90;;;16.50;99.90;;;;;;4917308;29;20091;-76
2022/11/11 12:50:03;;;;;;;0.85;0.85;;;16.60;99.90;;;;;;4927515;29;20047;-76
2022/11/11 12:52:57;;;;;;;1.58;1.23;;;16.20;99.90;;;;;;4931242;29;20063;-76
2022/11/11 12:56:06;;;;;;;1.98;1.27;;;16.00;99.90;;;;;;4931589;29;20108;-75
2022/11/11 12:59:21;;;;;;;2.05;1.92;;;16.00;99.90;;;;;;4945090;29;20038;-75
2022/11/11 13:02:36;;;;;;;2.60;2.40;;;16.00;99.90;;;;;;4935590;29;20087;-76
2022/11/11 13:05:44;;;;;;;1.80;1.70;;;16.00;99.90;;;;;;4949878;29;20035;-76
2022/11/11 13:08:50;;;;;;;3.53;1.70;;;16.10;99.90;;;;;;4950226;29;20073;-76
2022/11/11 13:11:43;;;;;;;5.63;3.08;;;16.10;99.90;;;;;;4950472;29;20035;-75
2022/11/11 13:14:53;;;;;;;2.75;1.27;;;16.10;99.90;;;;;;4950298;29;20400;-76
2022/11/11 13:17:37;;;;;;;1.15;0.95;;;16.00;99.90;;;;;;4950208;29;20075;-76
2022/11/11 13:20:33;;;;;;;1.35;0.93;;;16.00;99.90;;;;;;4950129;29;20541;-75
2022/11/11 13:23:18;;;;;;;0.95;0.85;;;16.00;99.90;;;;;;4950192;29;20114;-76
2022/11/11 13:26:06;;;;;;;1.45;1.15;;;16.00;99.90;;;;;;4950267;29;20107;-76
2022/11/11 13:29:06;;;;;;;2.90;0.60;;;15.80;99.90;;;;;;4950128;29;20111;-75
2022/11/11 13:31:54;;;;;;;1.95;0.98;;;15.90;99.90;;;;;;4950363;29;20127;-77
2022/11/11 13:34:40;;;;;;;1.55;1.08;;;15.80;99.90;;;;;;4949891;29;20072;-75
2022/11/11 13:37:27;;;;;;;2.80;1.15;;;15.60;99.90;;;;;;4949941;29;20070;-74
2022/11/11 13:40:47;;;;;;;1.67;1.52;;;15.70;99.90;;;;;;4929678;29;20080;-77
2022/11/11 13:43:39;;;;;;;3.08;1.25;;;15.60;99.90;;;;;;4910870;29;20055;-76
2022/11/11 13:46:45;;;;;;;2.17;1.55;;;15.60;99.90;;;;;;4911844;29;20454;-76
2022/11/11 13:49:33;;;;;;;3.70;1.63;;;15.50;99.90;;;;;;4911563;29;20048;-76
2022/11/11 13:52:31;;;;;;;1.55;1.10;;;15.50;99.90;;;;;;4911648;29;20051;-75
2022/11/11 13:55:38;;;;;;;7.57;2.25;;;15.40;99.90;;;;;;4915347;29;20615;-75
2022/11/11 13:58:28;;;;;;;2.97;1.73;;;15.30;99.90;;;;;;4930092;29;20264;-75
2022/11/11 14:01:13;;;;;;;4.03;1.40;;;15.30;99.90;;;;;;4930575;29;20410;-75
2022/11/11 14:04:04;;;;;;;2.75;1.60;;;15.20;99.90;;;;;;4930651;29;20102;-75
2022/11/11 14:06:53;;;;;;;10.65;1.85;;;15.20;99.90;;;;;;4929507;29;20190;-76
2022/11/11 14:09:54;;;;;;;1.48;1.23;;;15.10;99.90;;;;;;4930102;29;20051;-75
2022/11/11 14:12:44;;;;;;;7.30;4.38;;;15.10;99.90;;;;;;4930084;29;20063;-75
2022/11/11 14:15:42;;;;;;;11.63;7.80;;;15.10;99.90;;;;;;4929144;29;20047;-75
2022/11/11 14:18:33;;;;;;;3.55;2.05;;;15.00;99.90;;;;;;4930318;29;20047;-75
2022/11/11 14:21:55;;;;;;;1.75;1.63;;;15.00;99.90;;;;;;4930242;29;20085;-75
2022/11/11 14:24:43;;;;;;;3.70;1.50;;;14.90;99.90;;;;;;4929818;29;20047;-75
2022/11/11 14:27:30;;;;;;;2.83;1.58;;;14.80;99.90;;;;;;4930028;29;20055;-75
2022/11/11 14:30:39;;;;;;;4.03;1.67;;;14.70;99.90;;;;;;4928933;29;20099;-75
2022/11/11 14:33:55;;;;;;;3.65;1.33;;;14.60;99.90;;;;;;4928801;29;20050;-75
2022/11/11 14:36:58;;;;;;;2.35;1.63;;;14.50;99.90;;;;;;4903076;29;20085;-75
2022/11/11 14:39:53;;;;;;;3.47;1.63;;;14.40;99.90;;;;;;4942393;29;20066;-75
2022/11/11 14:42:37;;;;;;;2.67;1.63;;;14.30;99.90;;;;;;4948777;29;20046;-75
2022/11/11 14:45:28;;;;;;;3.45;2.80;;;14.30;99.90;;;;;;4934299;29;20050;-75
2022/11/11 14:48:50;;;;;;;5.13;4.15;;;14.20;99.90;;;;;;4948953;29;20047;-75
2022/11/11 14:51:44;;;;;;;6.07;2.15;;;14.10;99.90;;;;;;4934146;29;20047;-75
2022/11/11 14:54:50;;;;;;;2.22;1.88;;;13.90;99.90;;;;;;4947556;29;20074;-75
2022/11/11 14:57:50;;;;;;;2.72;1.65;;;13.90;99.90;;;;;;4934298;29;20071;-75
2022/11/11 15:00:47;;;;;;;3.15;1.77;;;13.80;99.90;;;;;;4929774;29;20051;-75
2022/11/11 15:03:38;;;;;;;6.13;3.03;;;13.60;99.90;;;;;;4929780;29;20055;-74
2022/11/11 15:06:30;;;;;;;2.92;2.10;;;13.40;99.90;;;;;;4915593;29;20051;-75
2022/11/11 15:09:32;;;;;;;3.45;2.72;;;13.30;99.90;;;;;;4929566;29;20072;-75
2022/11/11 15:12:23;;;;;;;2.22;1.60;;;13.30;99.90;;;;;;4915159;29;20100;-75
2022/11/11 15:15:22;;;;;;;7.15;1.20;;;13.30;99.90;;;;;;4929558;29;20072;-75
2022/11/11 15:18:55;;;;;;;1.98;1.42;;;13.20;99.90;;;;;;4929561;29;20065;-75
2022/11/11 15:22:11;;;;;;;1.77;1.23;;;12.90;99.90;;;;;;4943577;29;20058;-75
2022/11/11 15:25:05;;;;;;;1.42;1.17;;;12.70;99.90;;;;;;4927249;29;20488;-75
2022/11/11 15:28:25;;;;;;;6.32;2.22;;;12.50;99.90;;;;;;4948220;29;20035;-75
2022/11/11 15:31:13;;;;;;;1.63;1.48;;;12.30;99.90;;;;;;4948244;29;20038;-76
2022/11/11 15:34:16;;;;;;;0.98;0.98;;;12.10;99.90;;;;;;4948310;29;20111;-75
2022/11/11 15:37:03;;;;;;;2.92;1.25;;;12.10;99.90;;;;;;4933988;29;20039;-75
2022/11/11 15:39:54;;;;;;;2.95;2.35;;;11.90;99.90;;;;;;4947965;29;20122;-75
2022/11/11 15:42:44;;;;;;;10.25;6.97;;;11.70;99.90;;;;;;4948009;29;20099;-75
2022/11/11 15:45:34;;;;;;;4.38;3.90;;;11.60;99.90;;;;;;4948225;29;20055;-75
2022/11/11 15:48:25;;;;;;;7.88;3.38;;;11.50;99.90;;;;;;4948340;29;20075;-75
2022/11/11 15:51:25;;;;;;;3.00;2.55;;;11.40;99.90;;;;;;4933835;29;20485;-75
2022/11/11 15:54:16;;;;;;;3.65;3.38;;;11.30;99.90;;;;;;4948129;29;20119;-75
2022/11/11 15:57:26;;;;;;;3.53;3.22;;;11.20;99.90;;;;;;4948202;29;20066;-75
2022/11/11 16:00:22;;;;;;;3.42;3.10;;;11.00;99.90;;;;;;4947651;29;20046;-75
2022/11/11 16:03:15;;;;;;;6.78;6.13;;;10.90;99.90;;;;;;4948120;29;20087;-75
2022/11/11 16:06:02;;;;;;;4.88;4.47;;;10.70;99.90;;;;;;4948141;29;20042;-75
2022/11/11 16:08:51;;;;;;;6.50;2.70;;;10.60;99.90;;;;;;4947740;29;20043;-75
2022/11/11 16:11:38;;;;;;;3.67;3.35;;;10.50;99.90;;;;;;4947925;29;20047;-75